createdAt,value
2017-08-01T00:00:11.646Z,0
2017-08-01T00:01:22.007Z,0
2017-08-01T00:02:32.360Z,0
2017-08-01T00:03:42.409Z,0
2017-08-01T00:04:52.159Z,0
2017-08-01T00:06:02.503Z,0
2017-08-01T00:07:12.902Z,0
2017-08-01T00:08:22.956Z,0
2017-08-01T00:09:32.999Z,0
2017-08-01T00:10:43.058Z,0
2017-08-01T00:11:53.103Z,0
2017-08-01T00:13:03.496Z,0
2017-08-01T00:14:13.852Z,0
2017-08-01T00:15:24.209Z,0
2017-08-01T00:16:33.948Z,0
2017-08-01T00:17:43.990Z,0
2017-08-01T00:18:54.390Z,0
2017-08-01T00:20:04.746Z,0
2017-08-01T00:21:15.109Z,0
2017-08-01T00:22:25.470Z,0
2017-08-01T00:23:35.501Z,0
2017-08-01T00:24:45.255Z,0
2017-08-01T00:25:55.596Z,0
2017-08-01T00:27:05.648Z,0
2017-08-01T00:28:15.685Z,0
2017-08-01T00:29:25.721Z,0
2017-08-01T00:30:36.133Z,0
2017-08-01T00:31:46.182Z,0
2017-08-01T00:32:56.530Z,0
2017-08-01T00:34:06.889Z,0
2017-08-01T00:35:17.248Z,0
2017-08-01T00:36:27.638Z,0
2017-08-01T00:37:37.983Z,0
2017-08-01T00:38:48.011Z,0
2017-08-01T00:39:58.062Z,0
2017-08-01T00:41:08.422Z,0
2017-08-01T00:42:18.822Z,0
2017-08-01T00:43:29.173Z,0
2017-08-01T00:44:39.232Z,0
2017-08-01T00:45:49.271Z,0
2017-08-01T00:46:59.627Z,0
2017-08-01T00:48:10.035Z,0
2017-08-01T00:49:20.402Z,0
2017-08-01T00:50:30.748Z,0
2017-08-01T00:51:40.474Z,0
2017-08-01T00:52:50.523Z,0
2017-08-01T00:54:00.622Z,0
2017-08-01T00:55:10.344Z,0
2017-08-01T00:56:20.089Z,0
2017-08-01T00:57:30.134Z,0
2017-08-01T00:58:40.486Z,0
2017-08-01T00:59:50.523Z,0
2017-08-01T01:01:00.878Z,0
2017-08-01T01:02:10.900Z,0
2017-08-01T01:03:21.297Z,0
2017-08-01T01:04:31.681Z,0
2017-08-01T01:05:42.111Z,0
2017-08-01T01:06:52.170Z,0
2017-08-01T01:08:02.510Z,0
2017-08-01T01:09:12.540Z,0
2017-08-01T01:10:22.883Z,0
2017-08-01T01:11:32.924Z,0
2017-08-01T01:12:43.277Z,0
2017-08-01T01:13:53.026Z,0
2017-08-01T01:15:03.394Z,0
2017-08-01T01:16:13.748Z,0
2017-08-01T01:17:24.158Z,0
2017-08-01T01:18:34.506Z,0
2017-08-01T01:19:44.845Z,0
2017-08-01T01:20:55.202Z,0
2017-08-01T01:22:05.278Z,0
2017-08-01T01:23:15.358Z,0
2017-08-01T01:24:25.710Z,0
2017-08-01T01:25:36.060Z,0
2017-08-01T01:26:46.407Z,0
2017-08-01T01:27:56.745Z,0
2017-08-01T01:29:07.139Z,0
2017-08-01T01:30:17.489Z,0
2017-08-01T01:31:27.840Z,0
2017-08-01T01:32:38.218Z,0
2017-08-01T01:33:48.573Z,0
2017-08-01T01:34:58.965Z,0
2017-08-01T01:36:09.022Z,0
2017-08-01T01:37:19.359Z,0
2017-08-01T01:38:29.716Z,0
2017-08-01T01:39:40.061Z,0
2017-08-01T01:40:50.158Z,0
2017-08-01T01:42:00.206Z,0
2017-08-01T01:43:10.547Z,0
2017-08-01T01:44:20.889Z,0
2017-08-01T01:45:31.249Z,0
2017-08-01T01:46:41.662Z,0
2017-08-01T01:47:51.700Z,0
2017-08-01T01:49:02.059Z,0
2017-08-01T01:50:12.496Z,0
2017-08-01T01:51:22.854Z,0
2017-08-01T01:52:33.256Z,0
2017-08-01T01:53:43.290Z,0
2017-08-01T01:54:53.647Z,0
2017-08-01T01:56:04.001Z,0
2017-08-01T01:57:14.358Z,0
2017-08-01T01:58:24.776Z,0
2017-08-01T01:59:34.192Z,0
2017-08-01T02:00:44.543Z,0
2017-08-01T02:01:54.909Z,0
2017-08-01T02:03:04.940Z,0
2017-08-01T02:04:15.040Z,0
2017-08-01T02:05:25.081Z,0
2017-08-01T02:06:35.134Z,0
2017-08-01T02:07:45.175Z,0
2017-08-01T02:08:55.215Z,0
2017-08-01T02:10:05.565Z,0
2017-08-01T02:11:15.932Z,0
2017-08-01T02:12:26.285Z,0
2017-08-01T02:13:36.619Z,0
2017-08-01T02:14:46.659Z,0
2017-08-01T02:15:57.061Z,0
2017-08-01T02:17:07.406Z,0
2017-08-01T02:18:17.769Z,0
2017-08-01T02:19:28.129Z,0
2017-08-01T02:20:38.471Z,0
2017-08-01T02:21:48.814Z,0
2017-08-01T02:22:58.560Z,0
2017-08-01T02:24:08.281Z,0
2017-08-01T02:25:18.629Z,0
2017-08-01T02:26:28.344Z,0
2017-08-01T02:27:38.735Z,0
2017-08-01T02:28:49.135Z,0
2017-08-01T02:29:59.507Z,0
2017-08-01T02:31:09.535Z,0
2017-08-01T02:32:19.891Z,0
2017-08-01T02:33:29.650Z,0
2017-08-01T02:34:40.004Z,0
2017-08-01T02:35:50.371Z,0
2017-08-01T02:37:00.728Z,0
2017-08-01T02:38:11.091Z,0
2017-08-01T02:39:21.483Z,0
2017-08-01T02:40:31.538Z,0
2017-08-01T02:41:41.899Z,0
2017-08-01T02:42:51.941Z,0
2017-08-01T02:44:01.975Z,0
2017-08-01T02:45:12.081Z,0
2017-08-01T02:46:22.444Z,0
2017-08-01T02:47:32.794Z,0
2017-08-01T02:48:42.837Z,0
2017-08-01T02:49:53.193Z,0
2017-08-01T02:51:03.600Z,0
2017-08-01T02:52:13.957Z,0
2017-08-01T02:53:24.310Z,0
2017-08-01T02:54:34.659Z,0
2017-08-01T02:55:45.038Z,0
2017-08-01T02:56:55.434Z,0
2017-08-01T02:58:05.459Z,0
2017-08-01T02:59:15.812Z,0
2017-08-01T03:00:26.160Z,0
2017-08-01T03:01:36.206Z,0
2017-08-01T03:33:16.879Z,5
2017-08-01T03:34:26.901Z,5
2017-08-01T03:35:37.238Z,10
2017-08-01T03:36:47.574Z,10
2017-08-01T03:37:57.602Z,10
2017-08-01T03:39:07.994Z,10
2017-08-01T03:40:18.335Z,10
2017-08-01T03:41:28.683Z,15
2017-08-01T03:42:39.022Z,15
2017-08-01T03:43:49.056Z,15
2017-08-01T03:44:59.146Z,15
2017-08-01T03:46:09.481Z,20
2017-08-01T03:47:19.524Z,20
2017-08-01T03:48:29.867Z,20
2017-08-01T03:49:39.585Z,20
2017-08-01T03:50:49.985Z,25
2017-08-01T03:52:00.329Z,25
2017-08-01T03:53:10.668Z,25
2017-08-01T03:54:21.012Z,25
2017-08-01T03:55:31.351Z,30
2017-08-01T03:56:41.443Z,30
2017-08-01T03:57:51.793Z,30
2017-08-01T03:59:02.143Z,35
2017-08-01T04:00:12.509Z,35
2017-08-01T04:01:22.847Z,35
2017-08-01T04:02:33.195Z,40
2017-08-01T04:03:43.545Z,40
2017-08-01T04:04:53.606Z,40
2017-08-01T04:06:03.953Z,40
2017-08-01T04:07:14.295Z,40
2017-08-01T04:08:24.651Z,40
2017-08-01T04:09:34.694Z,45
2017-08-01T04:10:45.041Z,45
2017-08-01T04:11:55.383Z,45
2017-08-01T04:13:05.419Z,50
2017-08-01T04:14:15.507Z,50
2017-08-01T04:15:25.853Z,50
2017-08-01T04:16:36.216Z,55
2017-08-01T04:17:46.566Z,55
2017-08-01T04:18:56.618Z,60
2017-08-01T04:20:06.963Z,60
2017-08-01T04:21:17.009Z,60
2017-08-01T04:22:27.050Z,65
2017-08-01T04:23:37.391Z,65
2017-08-01T04:24:47.723Z,70
2017-08-01T04:25:58.102Z,70
2017-08-01T04:27:08.473Z,115
2017-08-01T04:28:18.842Z,240
2017-08-01T04:29:28.918Z,300
2017-08-01T04:30:38.641Z,305
2017-08-01T04:31:48.726Z,285
2017-08-01T04:32:59.079Z,310
2017-08-01T04:34:08.824Z,330
2017-08-01T04:35:19.172Z,330
2017-08-01T04:36:29.520Z,240
2017-08-01T04:37:39.875Z,110
2017-08-01T04:38:50.222Z,90
2017-08-01T04:40:00.566Z,95
2017-08-01T04:41:10.916Z,100
2017-08-01T04:42:21.280Z,155
2017-08-01T04:43:31.313Z,160
2017-08-01T04:44:41.680Z,135
2017-08-01T04:45:52.038Z,105
2017-08-01T04:47:02.403Z,110
2017-08-01T04:48:12.763Z,125
2017-08-01T04:49:23.127Z,125
2017-08-01T04:50:33.480Z,110
2017-08-01T04:51:43.821Z,165
2017-08-01T04:52:54.166Z,155
2017-08-01T04:54:04.520Z,380
2017-08-01T04:55:14.872Z,390
2017-08-01T04:56:24.920Z,420
2017-08-01T04:57:35.277Z,430
2017-08-01T04:58:45.628Z,420
2017-08-01T04:59:55.982Z,420
2017-08-01T05:01:06.029Z,430
2017-08-01T05:02:16.385Z,430
2017-08-01T05:03:26.760Z,430
2017-08-01T05:04:37.122Z,420
2017-08-01T05:05:47.474Z,425
2017-08-01T05:06:57.879Z,450
2017-08-01T05:08:07.924Z,430
2017-08-01T05:09:18.276Z,420
2017-08-01T05:10:28.316Z,415
2017-08-01T05:11:38.356Z,425
2017-08-01T05:12:48.780Z,425
2017-08-01T05:13:59.165Z,410
2017-08-01T05:15:09.541Z,415
2017-08-01T05:16:19.890Z,440
2017-08-01T05:17:29.927Z,440
2017-08-01T05:18:39.973Z,430
2017-08-01T05:19:50.323Z,430
2017-08-01T05:21:00.679Z,425
2017-08-01T05:22:11.037Z,410
2017-08-01T05:23:21.395Z,395
2017-08-01T05:24:31.811Z,400
2017-08-01T05:25:41.842Z,410
2017-08-01T05:26:52.199Z,400
2017-08-01T05:28:02.551Z,385
2017-08-01T05:29:12.911Z,380
2017-08-01T05:30:23.274Z,380
2017-08-01T05:31:33.643Z,380
2017-08-01T05:32:44.002Z,385
2017-08-01T05:33:54.366Z,395
2017-08-01T05:35:04.417Z,400
2017-08-01T05:36:14.788Z,400
2017-08-01T05:37:24.831Z,400
2017-08-01T05:38:34.878Z,395
2017-08-01T05:39:45.245Z,380
2017-08-01T05:40:55.617Z,385
2017-08-01T05:42:06.028Z,385
2017-08-01T05:43:16.061Z,390
2017-08-01T05:44:26.413Z,380
2017-08-01T05:45:36.458Z,380
2017-08-01T05:46:46.826Z,375
2017-08-01T05:47:57.225Z,370
2017-08-01T05:49:07.596Z,365
2017-08-01T05:50:17.662Z,365
2017-08-01T05:51:28.004Z,365
2017-08-01T05:52:38.045Z,365
2017-08-01T05:53:48.104Z,360
2017-08-01T05:54:58.139Z,360
2017-08-01T05:56:08.489Z,355
2017-08-01T05:57:18.536Z,360
2017-08-01T05:58:28.587Z,360
2017-08-01T05:59:38.357Z,365
2017-08-01T06:00:48.707Z,360
2017-08-01T06:01:58.742Z,360
2017-08-01T06:03:08.778Z,360
2017-08-01T06:04:18.813Z,350
2017-08-01T06:05:29.176Z,350
2017-08-01T06:06:39.526Z,340
2017-08-01T06:07:49.258Z,340
2017-08-01T06:08:59.305Z,260
2017-08-01T06:10:09.376Z,160
2017-08-01T06:11:19.124Z,145
2017-08-01T06:12:29.166Z,145
2017-08-01T06:13:39.513Z,145
2017-08-01T06:14:49.554Z,145
2017-08-01T06:15:59.601Z,145
2017-08-01T06:17:10.023Z,145
2017-08-01T06:18:20.388Z,145
2017-08-01T06:19:30.735Z,145
2017-08-01T06:20:41.099Z,165
2017-08-01T06:21:51.137Z,180
2017-08-01T06:23:01.483Z,180
2017-08-01T06:24:11.832Z,180
2017-08-01T06:25:21.873Z,180
2017-08-01T06:26:31.923Z,180
2017-08-01T06:27:42.290Z,175
2017-08-01T06:28:52.659Z,175
2017-08-01T06:30:02.073Z,175
2017-08-01T06:31:12.451Z,175
2017-08-01T06:32:22.826Z,170
2017-08-01T06:33:32.870Z,170
2017-08-01T06:34:43.273Z,170
2017-08-01T06:35:53.637Z,170
2017-08-01T06:37:04.004Z,170
2017-08-01T06:38:14.367Z,170
2017-08-01T06:39:24.731Z,170
2017-08-01T06:40:35.132Z,170
2017-08-01T06:41:45.178Z,160
2017-08-01T06:42:55.540Z,150
2017-08-01T06:44:05.872Z,150
2017-08-01T06:45:15.911Z,150
2017-08-01T06:46:26.315Z,165
2017-08-01T06:47:36.679Z,180
2017-08-01T06:48:46.739Z,190
2017-08-01T06:49:57.086Z,190
2017-08-01T06:51:07.454Z,190
2017-08-01T06:52:17.865Z,185
2017-08-01T06:53:27.587Z,180
2017-08-01T06:54:37.638Z,180
2017-08-01T06:55:47.995Z,175
2017-08-01T06:56:58.348Z,175
2017-08-01T06:58:08.870Z,170
2017-08-01T06:59:18.914Z,160
2017-08-01T07:00:29.292Z,150
2017-08-01T07:01:39.649Z,150
2017-08-01T07:02:50.028Z,150
2017-08-01T07:04:00.437Z,150
2017-08-01T07:05:10.798Z,150
2017-08-01T07:06:20.844Z,150
2017-08-01T07:07:31.187Z,150
2017-08-01T07:08:41.231Z,150
2017-08-01T07:09:51.667Z,150
2017-08-01T07:11:01.720Z,150
2017-08-01T07:12:12.071Z,150
2017-08-01T07:13:21.818Z,150
2017-08-01T07:14:32.185Z,150
2017-08-01T07:15:42.273Z,150
2017-08-01T07:16:52.632Z,155
2017-08-01T07:18:03.002Z,155
2017-08-01T07:19:13.058Z,155
2017-08-01T07:20:23.422Z,155
2017-08-01T07:21:33.550Z,155
2017-08-01T07:22:43.606Z,160
2017-08-01T07:23:53.972Z,160
2017-08-01T07:25:04.023Z,160
2017-08-01T07:26:14.398Z,155
2017-08-01T07:27:24.793Z,155
2017-08-01T07:28:35.151Z,155
2017-08-01T07:29:45.200Z,160
2017-08-01T07:30:55.252Z,160
2017-08-01T07:32:05.593Z,165
2017-08-01T07:33:16.009Z,160
2017-08-01T07:34:26.359Z,160
2017-08-01T07:35:36.741Z,160
2017-08-01T07:36:47.123Z,160
2017-08-01T07:37:56.918Z,160
2017-08-01T07:39:07.459Z,160
2017-08-01T07:40:17.870Z,160
2017-08-01T07:41:28.276Z,160
2017-08-01T07:42:38.678Z,165
2017-08-01T07:43:48.713Z,165
2017-08-01T07:44:59.195Z,165
2017-08-01T07:46:09.322Z,165
2017-08-01T07:47:19.784Z,165
2017-08-01T07:48:29.925Z,165
2017-08-01T07:49:40.294Z,165
2017-08-01T07:50:50.796Z,165
2017-08-01T07:52:01.170Z,165
2017-08-01T07:53:11.219Z,165
2017-08-01T07:54:21.682Z,170
2017-08-01T07:55:31.721Z,170
2017-08-01T07:56:42.169Z,170
2017-08-01T07:57:52.255Z,170
2017-08-01T07:59:02.627Z,170
2017-08-01T08:00:13.000Z,170
2017-08-01T08:01:23.374Z,170
2017-08-01T08:02:33.483Z,170
2017-08-01T08:03:43.562Z,170
2017-08-01T08:04:53.940Z,170
2017-08-01T08:06:04.344Z,170
2017-08-01T08:07:14.731Z,170
2017-08-01T08:08:25.214Z,175
2017-08-01T08:09:35.678Z,175
2017-08-01T08:10:46.127Z,175
2017-08-01T08:11:56.182Z,175
2017-08-01T08:13:06.228Z,175
2017-08-01T08:14:16.820Z,175
2017-08-01T08:15:26.885Z,175
2017-08-01T08:16:37.323Z,175
2017-08-01T08:17:47.681Z,175
2017-08-01T08:18:57.767Z,180
2017-08-01T08:20:07.966Z,175
2017-08-01T08:21:18.020Z,175
2017-08-01T08:22:28.417Z,175
2017-08-01T08:23:38.807Z,175
2017-08-01T08:24:49.189Z,175
2017-08-01T08:25:59.650Z,175
2017-08-01T08:27:10.063Z,175
2017-08-01T08:28:20.436Z,175
2017-08-01T08:29:30.815Z,175
2017-08-01T08:30:41.192Z,175
2017-08-01T08:31:51.618Z,175
2017-08-01T08:33:02.130Z,175
2017-08-01T08:34:12.202Z,175
2017-08-01T08:35:21.933Z,175
2017-08-01T08:36:32.335Z,180
2017-08-01T08:37:42.756Z,180
2017-08-01T08:38:53.243Z,180
2017-08-01T08:40:03.064Z,180
2017-08-01T08:41:13.112Z,175
2017-08-01T08:42:23.461Z,180
2017-08-01T08:43:33.548Z,180
2017-08-01T08:44:43.915Z,180
2017-08-01T08:45:54.289Z,180
2017-08-01T08:47:04.695Z,180
2017-08-01T08:48:14.802Z,180
2017-08-01T08:49:25.229Z,180
2017-08-01T08:50:35.694Z,180
2017-08-01T08:51:46.085Z,180
2017-08-01T08:52:56.491Z,180
2017-08-01T08:54:06.563Z,180
2017-08-01T08:55:16.921Z,180
2017-08-01T08:56:26.973Z,180
2017-08-01T08:57:37.419Z,180
2017-08-01T08:58:47.466Z,180
2017-08-01T08:59:57.854Z,180
2017-08-01T09:01:08.282Z,180
2017-08-01T09:02:18.635Z,180
2017-08-01T09:03:28.750Z,185
2017-08-01T09:04:39.176Z,180
2017-08-01T09:05:49.546Z,185
2017-08-01T09:07:00.027Z,180
2017-08-01T09:08:10.485Z,180
2017-08-01T09:09:20.852Z,180
2017-08-01T09:10:30.885Z,185
2017-08-01T09:11:41.242Z,185
2017-08-01T09:12:51.602Z,185
2017-08-01T09:14:01.983Z,185
2017-08-01T09:15:12.375Z,185
2017-08-01T09:16:22.133Z,185
2017-08-01T09:17:32.489Z,185
2017-08-01T09:18:42.530Z,185
2017-08-01T09:19:52.894Z,185
2017-08-01T09:21:03.279Z,185
2017-08-01T09:22:13.642Z,185
2017-08-01T09:23:24.031Z,185
2017-08-01T09:24:34.541Z,185
2017-08-01T09:25:44.654Z,185
2017-08-01T09:26:55.103Z,185
2017-08-01T09:28:05.154Z,190
2017-08-01T09:29:15.526Z,190
2017-08-01T09:30:25.653Z,190
2017-08-01T09:31:35.703Z,190
2017-08-01T09:32:45.832Z,190
2017-08-01T09:33:56.207Z,190
2017-08-01T09:35:06.602Z,190
2017-08-01T09:36:16.722Z,190
2017-08-01T09:37:27.112Z,190
2017-08-01T09:38:37.490Z,190
2017-08-01T09:39:47.561Z,190
2017-08-01T09:40:57.611Z,190
2017-08-01T09:42:08.083Z,190
2017-08-01T09:43:18.502Z,195
2017-08-01T09:44:28.891Z,190
2017-08-01T09:45:39.247Z,195
2017-08-01T09:46:49.621Z,195
2017-08-01T09:48:00.053Z,195
2017-08-01T09:49:10.432Z,195
2017-08-01T09:50:20.550Z,195
2017-08-01T09:51:30.934Z,195
2017-08-01T09:52:41.324Z,195
2017-08-01T09:53:51.693Z,195
2017-08-01T09:55:01.451Z,195
2017-08-01T09:56:11.881Z,195
2017-08-01T09:57:22.246Z,200
2017-08-01T09:58:32.314Z,195
2017-08-01T09:59:42.994Z,200
2017-08-01T10:00:53.394Z,200
2017-08-01T10:02:03.885Z,200
2017-08-01T10:03:14.298Z,200
2017-08-01T10:04:24.664Z,200
2017-08-01T10:05:34.746Z,200
2017-08-01T10:06:45.154Z,200
2017-08-01T10:07:54.886Z,200
2017-08-01T10:09:05.282Z,205
2017-08-01T10:10:15.646Z,205
2017-08-01T10:11:25.787Z,205
2017-08-01T10:12:35.877Z,205
2017-08-01T10:13:45.633Z,205
2017-08-01T10:14:56.017Z,205
2017-08-01T10:16:06.382Z,205
2017-08-01T10:17:16.514Z,205
2017-08-01T10:18:26.623Z,205
2017-08-01T10:19:36.995Z,205
2017-08-01T10:20:47.377Z,210
2017-08-01T10:21:57.519Z,210
2017-08-01T10:23:07.974Z,210
2017-08-01T10:24:18.401Z,210
2017-08-01T10:25:28.791Z,210
2017-08-01T10:26:38.873Z,210
2017-08-01T10:27:49.261Z,210
2017-08-01T10:28:59.699Z,210
2017-08-01T10:30:10.112Z,210
2017-08-01T10:31:20.491Z,215
2017-08-01T10:32:30.565Z,215
2017-08-01T10:33:40.933Z,210
2017-08-01T10:34:51.347Z,215
2017-08-01T10:36:01.727Z,215
2017-08-01T10:37:11.854Z,215
2017-08-01T10:38:22.256Z,215
2017-08-01T10:39:32.638Z,215
2017-08-01T10:40:43.024Z,215
2017-08-01T10:41:53.416Z,215
2017-08-01T10:43:03.816Z,220
2017-08-01T10:44:13.883Z,220
2017-08-01T10:45:24.266Z,215
2017-08-01T10:46:34.370Z,215
2017-08-01T10:47:44.780Z,210
2017-08-01T10:48:55.150Z,215
2017-08-01T10:50:05.204Z,215
2017-08-01T10:51:15.561Z,215
2017-08-01T10:52:25.988Z,215
2017-08-01T10:53:36.362Z,215
2017-08-01T10:54:46.742Z,215
2017-08-01T10:55:56.813Z,220
2017-08-01T10:57:07.228Z,220
2017-08-01T10:58:17.672Z,220
2017-08-01T10:59:28.066Z,220
2017-08-01T11:00:38.447Z,220
2017-08-01T11:01:48.533Z,225
2017-08-01T11:02:58.601Z,220
2017-08-01T11:04:09.031Z,225
2017-08-01T11:05:19.433Z,225
2017-08-01T11:06:29.799Z,225
2017-08-01T11:07:40.155Z,225
2017-08-01T11:08:50.518Z,225
2017-08-01T11:10:00.957Z,225
2017-08-01T11:11:11.011Z,225
2017-08-01T11:12:21.066Z,225
2017-08-01T11:13:31.440Z,225
2017-08-01T11:14:41.501Z,225
2017-08-01T11:15:51.616Z,225
2017-08-01T11:17:01.975Z,225
2017-08-01T11:18:12.379Z,225
2017-08-01T11:19:22.469Z,225
2017-08-01T11:20:32.848Z,230
2017-08-01T11:21:43.273Z,225
2017-08-01T11:22:53.649Z,225
2017-08-01T11:24:04.035Z,230
2017-08-01T11:25:14.405Z,230
2017-08-01T11:26:24.788Z,230
2017-08-01T11:27:35.288Z,230
2017-08-01T11:28:45.661Z,230
2017-08-01T11:29:55.734Z,230
2017-08-01T11:31:06.118Z,230
2017-08-01T11:32:16.558Z,230
2017-08-01T11:33:27.027Z,230
2017-08-01T11:34:37.401Z,235
2017-08-01T11:35:47.172Z,230
2017-08-01T11:36:57.676Z,230
2017-08-01T11:38:08.109Z,230
2017-08-01T11:39:18.224Z,230
2017-08-01T11:40:28.305Z,230
2017-08-01T11:41:38.391Z,230
2017-08-01T11:42:48.797Z,230
2017-08-01T11:43:59.195Z,230
2017-08-01T11:45:09.605Z,230
2017-08-01T11:46:19.686Z,230
2017-08-01T11:47:30.085Z,230
2017-08-01T11:48:40.466Z,230
2017-08-01T11:49:50.555Z,230
2017-08-01T11:51:01.090Z,230
2017-08-01T11:52:10.835Z,230
2017-08-01T11:53:21.366Z,230
2017-08-01T11:54:31.764Z,230
2017-08-01T11:55:42.140Z,235
2017-08-01T11:56:52.574Z,230
2017-08-01T11:58:02.970Z,230
2017-08-01T11:59:13.048Z,230
2017-08-01T12:00:23.115Z,230
2017-08-01T12:01:33.222Z,230
2017-08-01T12:02:43.649Z,240
2017-08-01T12:03:54.020Z,235
2017-08-01T12:05:04.389Z,235
2017-08-01T12:06:14.788Z,230
2017-08-01T12:07:24.891Z,235
2017-08-01T12:08:35.274Z,235
2017-08-01T12:09:45.660Z,235
2017-08-01T12:10:56.037Z,230
2017-08-01T12:12:06.102Z,235
2017-08-01T12:13:16.193Z,230
2017-08-01T12:14:26.650Z,230
2017-08-01T12:15:36.742Z,230
2017-08-01T12:16:46.835Z,230
2017-08-01T12:17:57.242Z,230
2017-08-01T12:19:07.680Z,230
2017-08-01T12:20:18.060Z,230
2017-08-01T12:21:28.465Z,230
2017-08-01T12:22:38.897Z,235
2017-08-01T12:23:49.264Z,235
2017-08-01T12:24:59.393Z,235
2017-08-01T12:26:09.764Z,235
2017-08-01T12:27:20.151Z,230
2017-08-01T12:28:30.581Z,230
2017-08-01T12:29:40.960Z,230
2017-08-01T12:30:51.465Z,235
2017-08-01T12:32:01.868Z,235
2017-08-01T12:33:11.932Z,230
2017-08-01T12:34:22.066Z,230
2017-08-01T12:35:32.153Z,230
2017-08-01T12:36:42.535Z,230
2017-08-01T12:37:52.596Z,230
2017-08-01T12:39:02.968Z,230
2017-08-01T12:40:13.452Z,230
2017-08-01T12:41:23.870Z,230
2017-08-01T12:42:34.285Z,230
2017-08-01T12:43:44.972Z,230
2017-08-01T12:44:55.075Z,230
2017-08-01T12:46:05.152Z,230
2017-08-01T12:47:15.246Z,230
2017-08-01T12:48:25.665Z,230
2017-08-01T12:49:36.169Z,230
2017-08-01T12:50:46.574Z,230
2017-08-01T12:51:56.992Z,230
2017-08-01T12:53:07.363Z,230
2017-08-01T12:54:17.783Z,230
2017-08-01T12:55:28.178Z,230
2017-08-01T12:56:38.268Z,230
2017-08-01T12:57:48.350Z,230
2017-08-01T12:58:58.933Z,230
2017-08-01T13:00:09.331Z,225
2017-08-01T13:01:19.712Z,225
2017-08-01T13:02:30.205Z,225
2017-08-01T13:03:40.273Z,225
2017-08-01T13:04:50.379Z,225
2017-08-01T13:06:00.502Z,225
2017-08-01T13:07:10.968Z,225
2017-08-01T13:08:21.035Z,225
2017-08-01T13:09:31.108Z,225
2017-08-01T13:10:41.539Z,230
2017-08-01T13:11:51.922Z,230
2017-08-01T13:13:01.979Z,225
2017-08-01T13:14:12.363Z,225
2017-08-01T13:15:22.464Z,220
2017-08-01T13:16:32.906Z,220
2017-08-01T13:17:43.377Z,220
2017-08-01T13:18:53.760Z,220
2017-08-01T13:20:04.157Z,220
2017-08-01T13:21:14.595Z,220
2017-08-01T13:22:25.021Z,220
2017-08-01T13:23:35.085Z,220
2017-08-01T13:24:45.468Z,220
2017-08-01T13:25:55.849Z,220
2017-08-01T13:27:06.283Z,215
2017-08-01T13:28:16.740Z,225
2017-08-01T13:29:27.110Z,220
2017-08-01T13:30:37.513Z,215
2017-08-01T13:31:47.911Z,215
2017-08-01T13:32:57.970Z,215
2017-08-01T13:34:08.123Z,215
2017-08-01T13:35:18.502Z,215
2017-08-01T13:36:28.873Z,210
2017-08-01T13:37:39.260Z,210
2017-08-01T13:38:49.646Z,210
2017-08-01T13:40:00.070Z,210
2017-08-01T13:41:10.435Z,210
2017-08-01T13:42:20.812Z,210
2017-08-01T13:43:30.877Z,210
2017-08-01T13:44:41.247Z,210
2017-08-01T13:45:51.653Z,210
2017-08-01T13:47:02.060Z,210
2017-08-01T13:48:12.457Z,210
2017-08-01T13:49:22.833Z,210
2017-08-01T13:50:33.272Z,205
2017-08-01T13:51:43.387Z,205
2017-08-01T13:52:53.812Z,205
2017-08-01T13:54:04.188Z,205
2017-08-01T13:55:14.595Z,205
2017-08-01T13:56:25.046Z,205
2017-08-01T13:57:34.863Z,205
2017-08-01T13:58:44.954Z,205
2017-08-01T13:59:55.005Z,205
2017-08-01T14:01:05.450Z,200
2017-08-01T14:02:15.206Z,200
2017-08-01T14:03:25.696Z,205
2017-08-01T14:04:35.781Z,200
2017-08-01T14:05:46.240Z,200
2017-08-01T14:06:56.305Z,200
2017-08-01T14:08:06.398Z,200
2017-08-01T14:09:16.451Z,200
2017-08-01T14:10:26.860Z,200
2017-08-01T14:11:37.244Z,200
2017-08-01T14:12:47.618Z,200
2017-08-01T14:13:57.975Z,200
2017-08-01T14:15:08.413Z,195
2017-08-01T14:16:18.848Z,195
2017-08-01T14:17:29.265Z,195
2017-08-01T14:18:39.632Z,195
2017-08-01T14:19:50.015Z,195
2017-08-01T14:20:59.783Z,195
2017-08-01T14:22:09.907Z,190
2017-08-01T14:23:19.997Z,190
2017-08-01T14:24:30.403Z,190
2017-08-01T14:25:40.822Z,190
2017-08-01T14:26:51.257Z,190
2017-08-01T14:28:01.654Z,190
2017-08-01T14:29:12.022Z,185
2017-08-01T14:30:22.093Z,185
2017-08-01T14:31:32.518Z,185
2017-08-01T14:32:42.947Z,185
2017-08-01T14:33:53.004Z,185
2017-08-01T14:35:03.105Z,185
2017-08-01T14:36:13.166Z,185
2017-08-01T14:37:23.564Z,185
2017-08-01T14:38:33.997Z,185
2017-08-01T14:39:44.073Z,180
2017-08-01T14:40:54.452Z,180
2017-08-01T14:42:04.502Z,180
2017-08-01T14:43:14.891Z,180
2017-08-01T14:44:25.266Z,180
2017-08-01T14:45:35.344Z,180
2017-08-01T14:46:45.783Z,180
2017-08-01T14:47:56.162Z,185
2017-08-01T14:49:06.581Z,175
2017-08-01T14:50:16.999Z,175
2017-08-01T14:51:27.401Z,175
2017-08-01T14:52:37.811Z,180
2017-08-01T14:53:47.864Z,175
2017-08-01T14:54:58.269Z,175
2017-08-01T14:56:08.689Z,175
2017-08-01T14:57:19.055Z,170
2017-08-01T14:58:29.104Z,170
2017-08-01T14:59:39.492Z,170
2017-08-01T15:00:49.866Z,170
2017-08-01T15:02:00.325Z,170
2017-08-01T15:03:10.058Z,170
2017-08-01T15:04:20.462Z,170
2017-08-01T15:05:30.533Z,170
2017-08-01T15:06:40.916Z,170
2017-08-01T15:07:51.334Z,170
2017-08-01T15:09:01.454Z,170
2017-08-01T15:10:11.840Z,170
2017-08-01T15:11:21.609Z,170
2017-08-01T15:12:31.981Z,170
2017-08-01T15:13:42.425Z,165
2017-08-01T15:14:52.797Z,165
2017-08-01T15:16:03.183Z,165
2017-08-01T15:17:13.609Z,170
2017-08-01T15:18:23.684Z,165
2017-08-01T15:19:33.836Z,165
2017-08-01T15:20:44.214Z,165
2017-08-01T15:21:54.279Z,165
2017-08-01T15:23:04.646Z,160
2017-08-01T15:24:15.014Z,160
2017-08-01T15:25:24.802Z,160
2017-08-01T15:26:35.193Z,160
2017-08-01T15:27:45.592Z,160
2017-08-01T15:28:55.966Z,155
2017-08-01T15:30:06.336Z,155
2017-08-01T15:31:16.804Z,155
2017-08-01T15:32:27.182Z,155
2017-08-01T15:33:37.551Z,155
2017-08-01T15:34:47.929Z,155
2017-08-01T15:35:58.313Z,155
2017-08-01T15:37:08.760Z,155
2017-08-01T15:38:19.122Z,155
2017-08-01T15:39:29.491Z,150
2017-08-01T15:40:39.869Z,150
2017-08-01T15:41:50.277Z,150
2017-08-01T15:43:00.402Z,150
2017-08-01T15:44:10.770Z,150
2017-08-01T15:45:20.865Z,150
2017-08-01T15:46:31.227Z,145
2017-08-01T15:47:41.594Z,145
2017-08-01T15:48:51.971Z,145
2017-08-01T15:50:02.344Z,145
2017-08-01T15:51:12.715Z,145
2017-08-01T15:52:23.079Z,145
2017-08-01T15:53:33.452Z,140
2017-08-01T15:54:43.177Z,140
2017-08-01T15:55:53.208Z,140
2017-08-01T15:57:03.305Z,140
2017-08-01T15:58:13.367Z,145
2017-08-01T15:59:23.412Z,140
2017-08-01T16:00:33.784Z,140
2017-08-01T16:01:44.165Z,135
2017-08-01T16:02:54.521Z,135
2017-08-01T16:04:04.575Z,135
2017-08-01T16:05:14.645Z,135
2017-08-01T16:06:25.013Z,135
2017-08-01T16:07:35.057Z,135
2017-08-01T16:08:45.125Z,130
2017-08-01T16:09:55.490Z,130
2017-08-01T16:11:05.543Z,130
2017-08-01T16:12:15.596Z,125
2017-08-01T16:13:25.635Z,125
2017-08-01T16:14:36.065Z,125
2017-08-01T16:15:46.428Z,130
2017-08-01T16:16:56.794Z,125
2017-08-01T16:18:06.842Z,125
2017-08-01T16:19:16.930Z,125
2017-08-01T16:20:27.059Z,125
2017-08-01T16:21:37.132Z,120
2017-08-01T16:22:47.497Z,120
2017-08-01T16:23:57.875Z,125
2017-08-01T16:25:08.264Z,115
2017-08-01T16:26:18.635Z,115
2017-08-01T16:27:29.012Z,115
2017-08-01T16:28:39.376Z,115
2017-08-01T16:29:49.429Z,110
2017-08-01T16:30:59.795Z,110
2017-08-01T16:32:10.199Z,105
2017-08-01T16:33:20.591Z,105
2017-08-01T16:34:30.955Z,105
2017-08-01T16:35:41.300Z,105
2017-08-01T16:36:51.346Z,105
2017-08-01T16:38:01.459Z,105
2017-08-01T16:39:11.504Z,100
2017-08-01T16:40:21.548Z,100
2017-08-01T16:41:31.617Z,100
2017-08-01T16:42:41.976Z,100
2017-08-01T16:43:52.031Z,100
2017-08-01T16:45:02.104Z,100
2017-08-01T16:46:12.165Z,95
2017-08-01T16:47:22.530Z,95
2017-08-01T16:48:32.579Z,95
2017-08-01T16:49:42.938Z,95
2017-08-01T16:50:52.979Z,95
2017-08-01T16:52:03.356Z,95